Terminal Aerodrome Forecast
Issued by NWS

Home | Current Version | Previous Version | Text Only | Print | Product List | Glossary On
Versions: 1 2 3 4 5 6 7 8 9 10 11 12 13 14 15 16 17 18
000
FTUS42 KGSP 021726
TAFGMU
TAF
KGMU 021726Z 0218/0318 25011G17KT P6SM -SHRA SCT025 BKN040
      TEMPO 0218/0221 30010G25KT 4SM TSRA BR OVC025CB
     FM022100 24011KT P6SM -SHRA BKN050
     FM030000 24008KT P6SM VCSH OVC050
     FM031500 23012KT P6SM VCSH BKN060 PROB30 0316/0318 4SM TSRA
      BKN040CB=

USA.gov is the U.S. government's official web portal to all federal, state and local government web resources and services.